Time,TemperatureF,DewpointF,PressureIn,WindDirection,WindDirectionDegrees,WindSpeedMPH,WindSpeedGustMPH,Humidity,HourlyPrecipIn,Conditions,Clouds,dailyrainin,SoftwareType,DateUTC
2013-10-09 00:11:00,59.2,44.0,30.30,ESE,105,0.0,3.0,58,0.00,,,0.00,weatherlink.com 1.10,2013-10-09 04:11:00,
2013-10-09 00:26:00,59.2,45.0,30.31,SSE,152,0.0,10.0,59,0.00,,,0.00,weatherlink.com 1.10,2013-10-09 04:26:00,
2013-10-09 00:41:00,58.9,45.0,30.31,WNW,296,1.0,4.0,60,0.00,,,0.00,weatherlink.com 1.10,2013-10-09 04:41:00,
2013-10-09 00:56:00,58.9,45.0,30.30,SE,136,2.0,5.0,61,0.00,,,0.00,weatherlink.com 1.10,2013-10-09 04:56:00,
2013-10-09 01:11:00,58.6,45.0,30.31,SSW,209,1.0,6.0,61,0.00,,,0.00,weatherlink.com 1.10,2013-10-09 05:11:00,
2013-10-09 01:26:00,58.7,45.0,30.31,ENE,78,2.0,8.0,60,0.00,,,0.00,weatherlink.com 1.10,2013-10-09 05:26:00,
2013-10-09 01:41:00,58.5,45.0,30.31,East,85,2.0,7.0,61,0.00,,,0.00,weatherlink.com 1.10,2013-10-09 05:41:00,
2013-10-09 01:56:00,58.2,45.0,30.32,SSW,206,0.0,6.0,61,0.00,,,0.00,weatherlink.com 1.10,2013-10-09 05:56:00,
2013-10-09 02:11:00,58.0,44.0,30.32,ENE,71,0.0,5.0,60,0.00,,,0.00,weatherlink.com 1.10,2013-10-09 06:11:00,
2013-10-09 02:26:00,57.6,44.0,30.32,ENE,67,3.0,4.0,62,0.00,,,0.00,weatherlink.com 1.10,2013-10-09 06:26:00,
2013-10-09 02:41:00,57.4,45.0,30.32,SSE,150,1.0,6.0,64,0.00,,,0.00,weatherlink.com 1.10,2013-10-09 06:41:00,
2013-10-09 02:56:00,56.9,45.0,30.32,East,95,1.0,3.0,65,0.00,,,0.00,weatherlink.com 1.10,2013-10-09 06:56:00,
2013-10-09 03:11:00,56.7,45.0,30.31,SE,124,0.0,5.0,66,0.00,,,0.00,weatherlink.com 1.10,2013-10-09 07:11:00,
2013-10-09 03:26:00,56.3,45.0,30.31,ENE,78,0.0,2.0,67,0.00,,,0.00,weatherlink.com 1.10,2013-10-09 07:26:00,
2013-10-09 03:41:00,56.3,46.0,30.32,East,87,0.0,4.0,68,0.00,,,0.00,weatherlink.com 1.10,2013-10-09 07:41:00,
2013-10-09 03:56:00,55.8,46.0,30.31,East,91,0.0,2.0,69,0.00,,,0.00,weatherlink.com 1.10,2013-10-09 07:56:00,
2013-10-09 04:11:00,55.8,46.0,30.31,WSW,238,0.0,4.0,69,0.00,,,0.00,weatherlink.com 1.10,2013-10-09 08:11:00,
2013-10-09 04:26:00,56.5,45.0,30.31,South,174,2.0,5.0,66,0.00,,,0.00,weatherlink.com 1.10,2013-10-09 08:26:00,
2013-10-09 04:41:00,56.8,44.0,30.31,SW,214,0.0,6.0,63,0.00,,,0.00,weatherlink.com 1.10,2013-10-09 08:41:00,
2013-10-09 04:56:00,56.6,44.0,30.31,NE,34,2.0,4.0,63,0.00,,,0.00,weatherlink.com 1.10,2013-10-09 08:56:00,
2013-10-09 05:11:00,56.1,44.0,30.32,WSW,249,1.0,4.0,65,0.00,,,0.00,weatherlink.com 1.10,2013-10-09 09:11:00,
2013-10-09 05:26:00,55.7,44.0,30.32,SE,145,1.0,4.0,65,0.00,,,0.00,weatherlink.com 1.10,2013-10-09 09:26:00,
2013-10-09 05:41:00,55.5,44.0,30.33,NNW,328,1.0,8.0,66,0.00,,,0.00,weatherlink.com 1.10,2013-10-09 09:41:00,
2013-10-09 05:56:00,56.0,45.0,30.32,East,94,2.0,4.0,67,0.00,,,0.00,weatherlink.com 1.10,2013-10-09 09:56:00,
2013-10-09 06:11:00,-999.0,-99.9,30.33,North,-999,-999.0,-999.0,-999,0.00,,,0.00,weatherlink.com 1.10,2013-10-09 10:11:00,
2013-10-09 06:26:00,-999.0,-99.9,30.33,North,-999,-999.0,-999.0,-999,0.00,,,0.00,weatherlink.com 1.10,2013-10-09 10:26:00,
2013-10-09 06:42:00,-999.0,-99.9,30.32,North,-999,-999.0,-999.0,-999,0.00,,,0.00,weatherlink.com 1.10,2013-10-09 10:42:00,
2013-10-09 06:57:00,-999.0,-99.9,30.33,North,-999,-999.0,-999.0,-999,0.00,,,0.00,weatherlink.com 1.10,2013-10-09 10:57:00,
2013-10-09 07:12:00,-999.0,-99.9,30.33,North,-999,-999.0,-999.0,-999,0.00,,,0.00,weatherlink.com 1.10,2013-10-09 11:12:00,
2013-10-09 07:27:00,-999.0,-99.9,30.34,North,-999,-999.0,-999.0,-999,0.00,,,0.00,weatherlink.com 1.10,2013-10-09 11:27:00,
2013-10-09 07:42:00,55.2,48.0,30.35,SSW,192,1.0,6.0,77,0.00,,,0.00,weatherlink.com 1.10,2013-10-09 11:42:00,
2013-10-09 07:57:00,54.3,45.0,30.35,NNW,330,2.0,7.0,71,0.00,,,0.00,weatherlink.com 1.10,2013-10-09 11:57:00,
2013-10-09 08:12:00,54.7,46.0,30.36,North,1,2.0,5.0,73,0.00,,,0.00,weatherlink.com 1.10,2013-10-09 12:12:00,
2013-10-09 08:27:00,55.2,47.0,30.37,ESE,115,0.0,4.0,74,0.00,,,0.00,weatherlink.com 1.10,2013-10-09 12:27:00,
2013-10-09 08:42:00,56.5,49.0,30.37,ESE,105,2.0,9.0,75,0.00,,,0.00,weatherlink.com 1.10,2013-10-09 12:42:00,
2013-10-09 08:57:00,56.8,49.0,30.37,West,273,1.0,9.0,75,0.00,,,0.00,weatherlink.com 1.10,2013-10-09 12:57:00,
2013-10-09 09:12:00,57.0,48.0,30.37,South,179,1.0,11.0,73,0.00,,,0.00,weatherlink.com 1.10,2013-10-09 13:12:00,
2013-10-09 09:27:00,57.2,48.0,30.37,South,174,4.0,10.0,72,0.00,,,0.00,weatherlink.com 1.10,2013-10-09 13:27:00,
2013-10-09 09:42:00,57.4,48.0,30.37,WSW,246,1.0,8.0,71,0.00,,,0.00,weatherlink.com 1.10,2013-10-09 13:42:00,
2013-10-09 09:57:00,57.6,47.0,30.38,ESE,103,5.0,12.0,69,0.00,,,0.00,weatherlink.com 1.10,2013-10-09 13:57:00,
2013-10-09 10:12:00,57.5,47.0,30.38,NW,321,3.0,9.0,68,0.00,,,0.00,weatherlink.com 1.10,2013-10-09 14:12:00,
2013-10-09 10:27:00,57.4,47.0,30.37,ESE,108,3.0,10.0,68,0.00,,,0.00,weatherlink.com 1.10,2013-10-09 14:27:00,
2013-10-09 10:42:00,57.6,47.0,30.37,SE,130,1.0,9.0,69,0.00,,,0.00,weatherlink.com 1.10,2013-10-09 14:42:00,
2013-10-09 10:57:00,57.9,47.0,30.37,ENE,75,4.0,8.0,68,0.00,,,0.00,weatherlink.com 1.10,2013-10-09 14:57:00,
2013-10-09 11:12:00,58.3,48.0,30.37,ENE,66,8.0,10.0,68,0.00,,,0.00,weatherlink.com 1.10,2013-10-09 15:12:00,
2013-10-09 11:27:00,59.0,48.0,30.36,SE,127,1.0,9.0,66,0.00,,,0.00,weatherlink.com 1.10,2013-10-09 15:27:00,
2013-10-09 11:42:00,59.3,48.0,30.36,ESE,121,3.0,10.0,66,0.00,,,0.00,weatherlink.com 1.10,2013-10-09 15:42:00,
2013-10-09 11:57:00,60.2,49.0,30.37,East,98,6.0,8.0,66,0.00,,,0.00,weatherlink.com 1.10,2013-10-09 15:57:00,
2013-10-09 12:12:00,60.8,49.0,30.37,NE,46,2.0,11.0,65,0.00,,,0.00,weatherlink.com 1.10,2013-10-09 16:12:00,
2013-10-09 12:27:00,60.9,49.0,30.36,ESE,111,1.0,9.0,65,0.00,,,0.00,weatherlink.com 1.10,2013-10-09 16:27:00,
2013-10-09 12:42:00,61.7,49.0,30.36,SE,124,1.0,8.0,63,0.00,,,0.00,weatherlink.com 1.10,2013-10-09 16:42:00,
2013-10-09 12:57:00,61.6,49.0,30.36,ESE,110,3.0,7.0,63,0.00,,,0.00,weatherlink.com 1.10,2013-10-09 16:57:00,
2013-10-09 13:12:00,62.2,49.0,30.35,ENE,68,3.0,7.0,63,0.00,,,0.00,weatherlink.com 1.10,2013-10-09 17:12:00,
2013-10-09 13:27:00,62.2,49.0,30.35,SSE,150,2.0,11.0,63,0.00,,,0.00,weatherlink.com 1.10,2013-10-09 17:27:00,
2013-10-09 13:42:00,62.7,49.0,30.34,WSW,252,1.0,7.0,62,0.00,,,0.00,weatherlink.com 1.10,2013-10-09 17:42:00,
2013-10-09 13:57:00,63.0,49.0,30.34,ESE,121,2.0,7.0,60,0.00,,,0.00,weatherlink.com 1.10,2013-10-09 17:57:00,
2013-10-09 14:12:00,63.1,49.0,30.34,ESE,115,2.0,11.0,60,0.00,,,0.00,weatherlink.com 1.10,2013-10-09 18:12:00,
2013-10-09 14:27:00,62.9,49.0,30.34,East,98,2.0,11.0,61,0.00,,,0.00,weatherlink.com 1.10,2013-10-09 18:27:00,
2013-10-09 14:42:00,62.6,49.0,30.33,ENE,78,3.0,6.0,61,0.00,,,0.00,weatherlink.com 1.10,2013-10-09 18:42:00,
2013-10-09 14:57:00,63.1,49.0,30.33,NW,309,2.0,11.0,60,0.00,,,0.00,weatherlink.com 1.10,2013-10-09 18:57:00,
2013-10-09 15:12:00,63.1,48.0,30.32,ENE,72,1.0,9.0,59,0.00,,,0.00,weatherlink.com 1.10,2013-10-09 19:12:00,
2013-10-09 15:27:00,62.9,49.0,30.33,ESE,102,6.0,9.0,61,0.00,,,0.00,weatherlink.com 1.10,2013-10-09 19:27:00,
2013-10-09 15:42:00,62.7,49.0,30.33,SE,138,1.0,9.0,62,0.00,,,0.00,weatherlink.com 1.10,2013-10-09 19:42:00,
2013-10-09 15:58:00,62.7,49.0,30.33,WSW,239,1.0,6.0,61,0.00,,,0.00,weatherlink.com 1.10,2013-10-09 19:58:00,
2013-10-09 16:13:00,62.2,48.0,30.32,ESE,113,2.0,9.0,61,0.00,,,0.00,weatherlink.com 1.10,2013-10-09 20:13:00,
2013-10-09 16:28:00,62.2,49.0,30.32,SE,134,3.0,7.0,62,0.00,,,0.00,weatherlink.com 1.10,2013-10-09 20:28:00,
2013-10-09 16:43:00,62.0,49.0,30.32,SSE,151,1.0,9.0,62,0.00,,,0.00,weatherlink.com 1.10,2013-10-09 20:43:00,
2013-10-09 16:58:00,61.6,48.0,30.31,ENE,58,6.0,10.0,61,0.00,,,0.00,weatherlink.com 1.10,2013-10-09 20:58:00,
2013-10-09 17:13:00,61.2,47.0,30.31,SE,138,1.0,10.0,61,0.00,,,0.00,weatherlink.com 1.10,2013-10-09 21:13:00,
2013-10-09 17:28:00,61.2,47.0,30.31,SW,215,2.0,8.0,60,0.00,,,0.00,weatherlink.com 1.10,2013-10-09 21:28:00,
2013-10-09 17:43:00,60.8,47.0,30.31,SE,124,5.0,10.0,61,0.00,,,0.00,weatherlink.com 1.10,2013-10-09 21:43:00,
2013-10-09 17:58:00,60.5,47.0,30.31,ENE,75,4.0,8.0,62,0.00,,,0.00,weatherlink.com 1.10,2013-10-09 21:58:00,
2013-10-09 18:13:00,60.2,48.0,30.30,SE,138,1.0,6.0,64,0.00,,,0.00,weatherlink.com 1.10,2013-10-09 22:13:00,
2013-10-09 18:28:00,59.9,48.0,30.31,ESE,116,1.0,5.0,66,0.00,,,0.00,weatherlink.com 1.10,2013-10-09 22:28:00,
2013-10-09 18:43:00,59.5,48.0,30.31,East,99,3.0,6.0,67,0.00,,,0.00,weatherlink.com 1.10,2013-10-09 22:43:00,
2013-10-09 18:58:00,59.4,49.0,30.30,ESE,108,0.0,5.0,68,0.00,,,0.00,weatherlink.com 1.10,2013-10-09 22:58:00,
2013-10-09 19:17:00,59.6,49.0,30.30,East,85,2.0,5.0,68,0.00,,,0.00,weatherlink.com 1.10,2013-10-09 23:17:00,
2013-10-09 19:28:00,59.5,49.0,30.30,SE,146,1.0,5.0,68,0.00,,,0.00,weatherlink.com 1.10,2013-10-09 23:28:00,
2013-10-09 19:43:00,59.5,49.0,30.29,ENE,58,6.0,6.0,69,0.00,,,0.00,weatherlink.com 1.10,2013-10-09 23:43:00,
2013-10-09 19:58:00,59.3,49.0,30.29,East,91,2.0,5.0,69,0.00,,,0.00,weatherlink.com 1.10,2013-10-09 23:58:00,
2013-10-09 20:13:00,59.1,49.0,30.29,SE,129,0.0,4.0,69,0.00,,,0.00,weatherlink.com 1.10,2013-10-10 00:13:00,
2013-10-09 20:28:00,58.8,49.0,30.29,NE,46,5.0,5.0,70,0.00,,,0.00,weatherlink.com 1.10,2013-10-10 00:28:00,
2013-10-09 20:43:00,58.8,49.0,30.29,SSW,193,0.0,3.0,70,0.00,,,0.00,weatherlink.com 1.10,2013-10-10 00:43:00,
2013-10-09 20:58:00,58.6,49.0,30.29,SE,143,0.0,2.0,70,0.00,,,0.00,weatherlink.com 1.10,2013-10-10 00:58:00,
2013-10-09 21:13:00,58.5,48.0,30.29,NE,52,1.0,6.0,69,0.00,,,0.00,weatherlink.com 1.10,2013-10-10 01:13:00,
2013-10-09 21:28:00,58.4,48.0,30.29,East,79,6.0,7.0,69,0.00,,,0.00,weatherlink.com 1.10,2013-10-10 01:28:00,
2013-10-09 21:43:00,58.2,48.0,30.28,SSE,167,1.0,5.0,69,0.00,,,0.00,weatherlink.com 1.10,2013-10-10 01:43:00,
2013-10-09 21:58:00,58.0,48.0,30.29,WSW,246,1.0,6.0,70,0.00,,,0.00,weatherlink.com 1.10,2013-10-10 01:58:00,
2013-10-09 22:13:00,57.8,48.0,30.29,ESE,118,0.0,7.0,70,0.00,,,0.00,weatherlink.com 1.10,2013-10-10 02:13:00,
2013-10-09 22:28:00,57.5,48.0,30.29,SSE,155,1.0,4.0,71,0.00,,,0.00,weatherlink.com 1.10,2013-10-10 02:28:00,
2013-10-09 22:43:00,57.3,48.0,30.29,South,173,0.0,5.0,72,0.00,,,0.00,weatherlink.com 1.10,2013-10-10 02:43:00,
2013-10-09 22:58:00,57.1,48.0,30.28,SSE,160,0.0,4.0,72,0.00,,,0.00,weatherlink.com 1.10,2013-10-10 02:58:00,
2013-10-09 23:13:00,56.7,48.0,30.28,ESE,117,0.0,6.0,73,0.00,,,0.00,weatherlink.com 1.10,2013-10-10 03:13:00,
2013-10-09 23:29:00,56.4,48.0,30.28,ESE,114,1.0,5.0,74,0.00,,,0.00,weatherlink.com 1.10,2013-10-10 03:29:00,
2013-10-09 23:44:00,56.5,49.0,30.27,East,85,2.0,5.0,75,0.00,,,0.00,weatherlink.com 1.10,2013-10-10 03:44:00,